Friday, October 31, 2014
14:24 UTC
  |  Log In   |  Register Free
Airport Search:

Olympia Regional Airport
(KOLM)

Airport information sponsored by:
Glacier Jet Center at Olympia Regional (KOLM), Olympia, WA
FAA data valid effective September 18, 2014 - November 13, 2014 (unless otherwise noted).

 
 
 
 
 
 
 
 
 
 
 
 
 
 

Current Aviation Weather for Olympia Regional Airport (KOLM)

The most recent METAR observation for KOLM was updated at: 1415
METAR Summary (Translated METAR)
KOLM
311354Z AUTO 24005KT 4SM -RA BR FEW004 BKN029 OVC036 10/09 A2972 RMK AO2 SLP063 P0008 T01000094
KGRF
311403Z AUTO 23005KT 5SM RA BR OVC014 10/10 A2970 RMK AO2 OVC V BKN
(14.7 nm NE from KOLM)
KCLS
311355Z AUTO 00000KT 9SM -RA BKN019 OVC024 11/11 A2972 RMK AO2
(17.9 nm SW from KOLM)
TAF Summary (Translated TAF)
KOLM
311120Z 3112/0112 VRB03KT P6SM -SHRA SCT020 OVC040 TEMPO 3112/3116 5SM -SHRA BR BKN020 OVC040 FM312000 21006KT P6SM VCSH SCT020 BKN040 FM010600 00000KT P6SM BKN015 OVC040
KGRF
(14.7 nm NE from KOLM)
3113/0119 22006KT 9000 -SHRA BR OVC060 610805 520009 QNH2968INS TEMPO 3113/3116 4000 -SHRA BR BKN004 OVC020 BECMG 3116/3117 22006KT 9999 NSW BKN040 OVC060 QNH2972INS BECMG 0113/0114 22006KT 9000 BR OVC025 QNH2979INS TX12/3123Z TN05/0110Z
  Airport Weather Conditions for KOLM

 Current Weather at OLM
50° F
Light Rain Fog/Mist
Southwest winds at 5.8 mph
OLM NOAA Radar

Pressure: 29.72 in
Humidity: 96%
Wind: Southwest at 5.8 MPH (5 KT)
Dew Point: 48.9°F
Visibility: 4.00 mi


Airport Weather Forecast for KOLM

Translated METAR and TAF for KOLM
Translated METAR for KOLM (1419 UTC 31 October 2014)
found at http://aviationweather.gov/adds/metars/
 
METAR text: KOLM 311354Z AUTO 24005KT 4SM -RA BR FEW004 BKN029 OVC036 10/09 A2972 RMK AO2 SLP063 P0008 T01000094
Conditions at: KOLM (OLYMPIA , WA, US) observed 1354 UTC 31 October 2014
Temperature: 10.0°C (50°F)
Dewpoint: 9.4°C (49°F) [RH = 96%]
Pressure (altimeter): 29.72 inches Hg (1006.5 mb)
[Sea-level pressure: 1006.3 mb]
Winds: from the WSW (240 degrees) at 6 MPH (5 knots; 2.6 m/s)
Visibility: 4 miles (6 km)
Ceiling: 2900 feet AGL
Clouds: few clouds at 400 feet AGL
broken clouds at 2900 feet AGL
overcast cloud deck at 3600 feet AGL
Weather: -RA BR  (light rain, mist)
Translated TAF for KOLM
Forecast for: KOLM (OLYMPIA , WA, US)
TAF Text: KOLM 311120Z 3112/0112 VRB03KT P6SM -SHRA SCT020 OVC040
Forecast period: 1200 to 2000 UTC 31 October 2014
Forecast type: FROM: standard forecast or significant change
Winds: variable direction winds at 3 MPH (3 knots; 1.6 m/s)
Visibility: 6 or more miles (10+ km)
Ceiling: 4000 feet AGL
Clouds: scattered clouds at 2000 feet AGL
overcast cloud deck at 4000 feet AGL
Weather: -SHRA  (light rain showers)
TAF Text: TEMPO 3112/3116 5SM -SHRA BR BKN020 OVC040
Forecast period: 1200 to 1600 UTC 31 October 2014
Forecast type: TEMPORARY: The following changes expected for less than half the time period
Visibility: 5 miles (8 km)
Ceiling: 2000 feet AGL
Clouds: broken clouds at 2000 feet AGL
overcast cloud deck at 4000 feet AGL
Weather: -SHRA BR  (light rain showers, mist)
TAF Text: FM312000 21006KT P6SM VCSH SCT020 BKN040
Forecast period: 2000 UTC 31 October 2014 to 0600 UTC 01 November 2014
Forecast type: FROM: standard forecast or significant change
Winds: from the SSW (210 degrees) at 7 MPH (6 knots; 3.1 m/s)
Visibility: 6 or more miles (10+ km)
Ceiling: 4000 feet AGL
Clouds: scattered clouds at 2000 feet AGL
broken clouds at 4000 feet AGL
Weather: VCSH  (showers in vicinity)
TAF Text: FM010600 00000KT P6SM BKN015 OVC040
Forecast period: 0600 to 1200 UTC 01 November 2014
Forecast type: FROM: standard forecast or significant change
Winds: calm
Visibility: 6 or more miles (10+ km)
Ceiling: 1500 feet AGL
Clouds: broken clouds at 1500 feet AGL
overcast cloud deck at 4000 feet AGL
Weather: no significant weather forecast for this period

Find All Airport Services Find A Hotel Find A Rental Car Find A Golf Course Find A Restaurant $100 Hamburger



FBO's on the Field
FBO Company Facility Photos Services Transportation Aviation Fuel Prices: Prices include tax
Catering Weather Repair Courtesy Rental Type 100LL JetA JetA+ MOGAS 8087
 
Glacier Jet Center

Glacier Jet Center logo
Currently rated 3.6 by 1 person
FS:
Last Updated: Oct-07
Login to update fuel prices
SS:
Contact Glacier Jet CenterMore FBO Information
 
Jorgensen Air Service

Jorgensen Air Service logo
Currently rated 4.7 by 3 people
FS:
Last Updated: Oct-30
Login to update fuel prices
SS:
Contact Jorgensen Air ServiceMore FBO Information
 
Add another FBO Facility Photos Catering Weather Repair Courtesy Rental Type 100LL JetA JetA+ MOGAS 8087
Services Transportation Aviation Fuel Prices: Prices include tax


model-print
model-print
model-print
model-print